sensor_id;sensor_type;location;lat;lon;timestamp;pressure;altitude;pressure_sealevel;temperature;humidity
71795;BME280;59641;45.188;5.712;2022-11-20T00:01:46;99049.50;;;10.86;60.18
71795;BME280;59641;45.188;5.712;2022-11-20T00:04:11;99051.97;;;10.87;60.23
71795;BME280;59641;45.188;5.712;2022-11-20T00:06:37;99063.16;;;10.84;60.06
71795;BME280;59641;45.188;5.712;2022-11-20T00:09:03;99057.34;;;10.87;59.99
71795;BME280;59641;45.188;5.712;2022-11-20T00:11:30;99058.16;;;10.88;60.18
71795;BME280;59641;45.188;5.712;2022-11-20T00:13:58;99059.78;;;10.89;60.09
71795;BME280;59641;45.188;5.712;2022-11-20T00:16:26;99054.88;;;10.86;59.95
71795;BME280;59641;45.188;5.712;2022-11-20T00:18:52;99061.06;;;10.86;59.92
71795;BME280;59641;45.188;5.712;2022-11-20T00:23:45;99056.63;;;10.80;60.14
71795;BME280;59641;45.188;5.712;2022-11-20T00:26:13;99067.78;;;10.77;60.16
71795;BME280;59641;45.188;5.712;2022-11-20T00:28:39;99073.16;;;10.77;60.18
71795;BME280;59641;45.188;5.712;2022-11-20T00:31:10;99073.16;;;10.77;60.09
71795;BME280;59641;45.188;5.712;2022-11-20T00:33:35;99067.44;;;10.74;60.49
71795;BME280;59641;45.188;5.712;2022-11-20T00:36:03;99077.22;;;10.68;60.53
71795;BME280;59641;45.188;5.712;2022-11-20T00:38:30;99071.19;;;10.73;60.40
71795;BME280;59641;45.188;5.712;2022-11-20T00:41:00;99067.53;;;10.67;60.40
71795;BME280;59641;45.188;5.712;2022-11-20T00:43:26;99073.94;;;10.66;60.50
71795;BME280;59641;45.188;5.712;2022-11-20T00:45:59;99074.31;;;10.70;60.41
71795;BME280;59641;45.188;5.712;2022-11-20T00:48:25;99080.25;;;10.72;60.62
71795;BME280;59641;45.188;5.712;2022-11-20T00:50:50;99079.25;;;10.73;60.28
71795;BME280;59641;45.188;5.712;2022-11-20T00:53:16;99075.38;;;10.69;60.47
71795;BME280;59641;45.188;5.712;2022-11-20T00:55:41;99077.66;;;10.65;60.58
71795;BME280;59641;45.188;5.712;2022-11-20T00:58:07;99082.09;;;10.59;60.83
71795;BME280;59641;45.188;5.712;2022-11-20T01:00:32;99084.91;;;10.64;60.59
71795;BME280;59641;45.188;5.712;2022-11-20T01:02:57;99093.41;;;10.61;60.96
71795;BME280;59641;45.188;5.712;2022-11-20T01:05:23;99094.00;;;10.63;60.56
71795;BME280;59641;45.188;5.712;2022-11-20T01:07:49;99093.16;;;10.63;61.11
71795;BME280;59641;45.188;5.712;2022-11-20T01:10:14;99096.69;;;10.63;60.92
71795;BME280;59641;45.188;5.712;2022-11-20T01:12:39;99098.31;;;10.64;60.91
71795;BME280;59641;45.188;5.712;2022-11-20T01:15:05;99100.19;;;10.64;61.08
71795;BME280;59641;45.188;5.712;2022-11-20T01:17:34;99104.75;;;10.63;61.15
71795;BME280;59641;45.188;5.712;2022-11-20T01:19:59;99106.59;;;10.63;60.52
71795;BME280;59641;45.188;5.712;2022-11-20T01:22:25;99114.06;;;10.61;60.73
71795;BME280;59641;45.188;5.712;2022-11-20T01:24:50;99114.06;;;10.61;60.67
71795;BME280;59641;45.188;5.712;2022-11-20T01:27:16;99110.53;;;10.60;60.75
71795;BME280;59641;45.188;5.712;2022-11-20T01:29:41;99109.66;;;10.66;60.73
71795;BME280;59641;45.188;5.712;2022-11-20T01:32:06;99116.63;;;10.68;60.84
71795;BME280;59641;45.188;5.712;2022-11-20T01:34:32;99126.94;;;10.71;60.23
71795;BME280;59641;45.188;5.712;2022-11-20T01:36:57;99122.75;;;10.75;60.18
71795;BME280;59641;45.188;5.712;2022-11-20T01:39:25;99120.44;;;10.78;60.26
71795;BME280;59641;45.188;5.712;2022-11-20T01:41:55;99115.06;;;10.78;59.67
71795;BME280;59641;45.188;5.712;2022-11-20T01:44:51;99120.56;;;10.83;59.89
71795;BME280;59641;45.188;5.712;2022-11-20T01:50:11;99113.72;;;10.87;60.07
71795;BME280;59641;45.188;5.712;2022-11-20T01:52:45;99111.63;;;10.90;59.66
71795;BME280;59641;45.188;5.712;2022-11-20T01:55:20;99111.63;;;10.90;59.85
71795;BME280;59641;45.188;5.712;2022-11-20T01:57:47;99108.94;;;10.90;60.00
71795;BME280;59641;45.188;5.712;2022-11-20T02:00:16;99110.56;;;10.91;59.97
71795;BME280;59641;45.188;5.712;2022-11-20T02:02:46;99117.34;;;10.93;59.94
71795;BME280;59641;45.188;5.712;2022-11-20T02:05:45;99113.59;;;10.94;60.01
71795;BME280;59641;45.188;5.712;2022-11-20T02:08:12;99124.72;;;10.98;60.20
71795;BME280;59641;45.188;5.712;2022-11-20T02:10:38;99118.28;;;10.99;59.88
71795;BME280;59641;45.188;5.712;2022-11-20T02:13:04;99117.47;;;10.98;59.91
71795;BME280;59641;45.188;5.712;2022-11-20T02:15:48;99116.88;;;10.96;59.85
71795;BME280;59641;45.188;5.712;2022-11-20T02:18:16;99124.50;;;10.99;59.58
71795;BME280;59641;45.188;5.712;2022-11-20T02:20:44;99122.63;;;11.00;59.58
71795;BME280;59641;45.188;5.712;2022-11-20T02:26:21;99115.72;;;10.92;59.61
71795;BME280;59641;45.188;5.712;2022-11-20T02:28:48;99125.03;;;10.90;59.48
71795;BME280;59641;45.188;5.712;2022-11-20T02:31:14;99121.75;;;10.87;59.43
71795;BME280;59641;45.188;5.712;2022-11-20T02:33:39;99121.16;;;10.85;59.47
71795;BME280;59641;45.188;5.712;2022-11-20T02:36:05;99121.97;;;10.86;59.33
71795;BME280;59641;45.188;5.712;2022-11-20T02:38:32;99118.69;;;10.84;59.48
71795;BME280;59641;45.188;5.712;2022-11-20T02:40:58;99118.69;;;10.84;59.58
71795;BME280;59641;45.188;5.712;2022-11-20T02:43:24;99122.78;;;10.86;59.29
71795;BME280;59641;45.188;5.712;2022-11-20T02:45:51;99123.38;;;10.88;59.45
71795;BME280;59641;45.188;5.712;2022-11-20T02:48:18;99126.28;;;10.87;59.27
71795;BME280;59641;45.188;5.712;2022-11-20T02:50:47;99119.06;;;10.87;59.04
71795;BME280;59641;45.188;5.712;2022-11-20T02:53:14;99113.72;;;10.87;59.24
71795;BME280;59641;45.188;5.712;2022-11-20T02:55:39;99122.34;;;10.90;59.04
71795;BME280;59641;45.188;5.712;2022-11-20T02:58:05;99123.16;;;10.90;59.13
71795;BME280;59641;45.188;5.712;2022-11-20T03:00:30;99119.44;;;10.91;59.40
71795;BME280;59641;45.188;5.712;2022-11-20T03:02:57;99114.88;;;10.92;59.09
71795;BME280;59641;45.188;5.712;2022-11-20T03:05:22;99118.97;;;10.94;59.00
71795;BME280;59641;45.188;5.712;2022-11-20T03:07:48;99117.94;;;10.95;59.17
71795;BME280;59641;45.188;5.712;2022-11-20T03:10:13;99112.78;;;10.94;58.56
71795;BME280;59641;45.188;5.712;2022-11-20T03:12:39;99114.66;;;10.93;58.77
71795;BME280;59641;45.188;5.712;2022-11-20T03:15:05;99124.34;;;10.94;58.64
71795;BME280;59641;45.188;5.712;2022-11-20T03:17:30;99115.84;;;10.97;58.90
71795;BME280;59641;45.188;5.712;2022-11-20T03:19:56;99119.94;;;11.00;58.95
71795;BME280;59641;45.188;5.712;2022-11-20T03:22:21;99124.50;;;10.99;58.98
71795;BME280;59641;45.188;5.712;2022-11-20T03:24:47;99123.31;;;10.95;58.49
71795;BME280;59641;45.188;5.712;2022-11-20T03:27:12;99124.34;;;10.94;58.99
71795;BME280;59641;45.188;5.712;2022-11-20T03:29:38;99118.16;;;10.94;59.02
71795;BME280;59641;45.188;5.712;2022-11-20T03:32:03;99127.25;;;10.93;59.11
71795;BME280;59641;45.188;5.712;2022-11-20T03:34:29;99133.22;;;10.95;59.16
71795;BME280;59641;45.188;5.712;2022-11-20T03:36:54;99138.81;;;10.93;58.96
71795;BME280;59641;45.188;5.712;2022-11-20T03:39:20;99133.09;;;10.90;58.95
71795;BME280;59641;45.188;5.712;2022-11-20T03:41:45;99134.34;;;10.87;59.00
71795;BME280;59641;45.188;5.712;2022-11-20T03:44:11;99132.94;;;10.84;58.85
71795;BME280;59641;45.188;5.712;2022-11-20T03:46:37;99130.72;;;10.81;59.10
71795;BME280;59641;45.188;5.712;2022-11-20T03:49:04;99133.84;;;10.78;58.90
71795;BME280;59641;45.188;5.712;2022-11-20T03:51:31;99142.94;;;10.77;58.91
71795;BME280;59641;45.188;5.712;2022-11-20T03:54:00;99140.13;;;10.72;58.73
71795;BME280;59641;45.188;5.712;2022-11-20T03:56:30;99143.41;;;10.74;58.85
71795;BME280;59641;45.188;5.712;2022-11-20T03:58:56;99135.44;;;10.68;58.62
71795;BME280;59641;45.188;5.712;2022-11-20T04:01:25;99134.00;;;10.65;58.73
71795;BME280;59641;45.188;5.712;2022-11-20T04:03:53;99150.50;;;10.69;59.00
71795;BME280;59641;45.188;5.712;2022-11-20T04:06:30;99154.38;;;10.73;58.94
71795;BME280;59641;45.188;5.712;2022-11-20T04:08:57;99157.63;;;10.75;58.78
71795;BME280;59641;45.188;5.712;2022-11-20T04:11:31;99159.75;;;10.73;58.67
71795;BME280;59641;45.188;5.712;2022-11-20T04:14:05;99165.31;;;10.71;58.77
71795;BME280;59641;45.188;5.712;2022-11-20T04:16:35;99166.53;;;10.75;58.91
71795;BME280;59641;45.188;5.712;2022-11-20T04:19:04;99158.47;;;10.75;58.64
71795;BME280;59641;45.188;5.712;2022-11-20T04:21:30;99159.88;;;10.78;58.99
71795;BME280;59641;45.188;5.712;2022-11-20T04:23:55;99167.69;;;10.79;58.60
71795;BME280;59641;45.188;5.712;2022-11-20T04:26:23;99172.47;;;10.77;58.59
71795;BME280;59641;45.188;5.712;2022-11-20T04:28:49;99180.28;;;10.79;58.56
71795;BME280;59641;45.188;5.712;2022-11-20T04:31:17;99182.16;;;10.78;58.49
71795;BME280;59641;45.188;5.712;2022-11-20T04:33:43;99182.97;;;10.79;58.35
71795;BME280;59641;45.188;5.712;2022-11-20T04:36:12;99181.56;;;10.76;57.55
71795;BME280;59641;45.188;5.712;2022-11-20T04:38:39;99183.66;;;10.74;58.51
71795;BME280;59641;45.188;5.712;2022-11-20T04:41:06;99168.81;;;10.72;58.75
71795;BME280;59641;45.188;5.712;2022-11-20T04:43:33;99178.97;;;10.70;58.59
71795;BME280;59641;45.188;5.712;2022-11-20T04:45:59;99181.88;;;10.68;58.53
71795;BME280;59641;45.188;5.712;2022-11-20T04:48:26;99174.06;;;10.66;58.53
71795;BME280;59641;45.188;5.712;2022-11-20T04:50:52;99174.50;;;10.63;58.35
71795;BME280;59641;45.188;5.712;2022-11-20T04:53:18;99175.31;;;10.64;58.50
71795;BME280;59641;45.188;5.712;2022-11-20T04:55:45;99185.59;;;10.67;58.53
71795;BME280;59641;45.188;5.712;2022-11-20T04:58:10;99186.41;;;10.68;58.63
71795;BME280;59641;45.188;5.712;2022-11-20T05:00:36;99194.63;;;10.73;58.74
71795;BME280;59641;45.188;5.712;2022-11-20T05:03:01;99188.22;;;10.74;58.54
71795;BME280;59641;45.188;5.712;2022-11-20T05:05:26;99190.44;;;10.77;58.43
71795;BME280;59641;45.188;5.712;2022-11-20T05:07:52;99190.44;;;10.77;58.69
71795;BME280;59641;45.188;5.712;2022-11-20T05:10:17;99189.16;;;10.79;58.25
71795;BME280;59641;45.188;5.712;2022-11-20T05:12:43;99187.06;;;10.81;58.68
71795;BME280;59641;45.188;5.712;2022-11-20T05:15:09;99189.53;;;10.83;57.92
71795;BME280;59641;45.188;5.712;2022-11-20T05:17:34;99189.31;;;10.84;58.05
71795;BME280;59641;45.188;5.712;2022-11-20T05:19:59;99191.97;;;10.84;57.83
71795;BME280;59641;45.188;5.712;2022-11-20T05:22:25;99197.34;;;10.84;58.10
71795;BME280;59641;45.188;5.712;2022-11-20T05:24:51;99190.34;;;10.83;58.06
71795;BME280;59641;45.188;5.712;2022-11-20T05:27:16;99188.28;;;10.85;57.92
71795;BME280;59641;45.188;5.712;2022-11-20T05:29:41;99192.81;;;10.85;57.64
71795;BME280;59641;45.188;5.712;2022-11-20T05:32:07;99195.72;;;10.83;57.85
71795;BME280;59641;45.188;5.712;2022-11-20T05:34:35;99197.94;;;10.86;57.83
71795;BME280;59641;45.188;5.712;2022-11-20T05:37:01;99194.47;;;10.86;57.59
71795;BME280;59641;45.188;5.712;2022-11-20T05:39:27;99201.44;;;10.87;57.48
71795;BME280;59641;45.188;5.712;2022-11-20T05:41:52;99202.28;;;10.87;57.85
71795;BME280;59641;45.188;5.712;2022-11-20T05:44:38;99198.75;;;10.87;57.72
71795;BME280;59641;45.188;5.712;2022-11-20T05:47:03;99197.13;;;10.86;57.57
71795;BME280;59641;45.188;5.712;2022-11-20T05:49:29;99196.53;;;10.84;58.03
71795;BME280;59641;45.188;5.712;2022-11-20T05:51:54;99188.28;;;10.85;57.42
71795;BME280;59641;45.188;5.712;2022-11-20T05:54:19;99188.72;;;10.82;58.02
71795;BME280;59641;45.188;5.712;2022-11-20T05:56:45;99197.59;;;10.83;57.93
71795;BME280;59641;45.188;5.712;2022-11-20T05:59:10;99190.56;;;10.82;57.72
71795;BME280;59641;45.188;5.712;2022-11-20T06:01:36;99191.84;;;10.79;57.51
71795;BME280;59641;45.188;5.712;2022-11-20T06:04:01;99187.53;;;10.78;57.98
71795;BME280;59641;45.188;5.712;2022-11-20T06:06:27;99185.06;;;10.77;57.98
71795;BME280;59641;45.188;5.712;2022-11-20T06:08:52;99190.22;;;10.78;57.81
71795;BME280;59641;45.188;5.712;2022-11-20T06:11:18;99192.09;;;10.78;58.20
71795;BME280;59641;45.188;5.712;2022-11-20T06:13:44;99190.22;;;10.78;57.99
71795;BME280;59641;45.188;5.712;2022-11-20T06:16:12;99185.31;;;10.75;57.31
71795;BME280;59641;45.188;5.712;2022-11-20T06:18:38;99182.03;;;10.73;57.80
71795;BME280;59641;45.188;5.712;2022-11-20T06:21:06;99186.59;;;10.73;57.92
71795;BME280;59641;45.188;5.712;2022-11-20T06:23:33;99185.97;;;10.71;57.81
71795;BME280;59641;45.188;5.712;2022-11-20T06:26:04;99192.38;;;10.70;57.79
71795;BME280;59641;45.188;5.712;2022-11-20T06:28:29;99197.16;;;10.68;57.89
71795;BME280;59641;45.188;5.712;2022-11-20T06:30:55;99189.56;;;10.64;57.71
71795;BME280;59641;45.188;5.712;2022-11-20T06:33:21;99192.22;;;10.64;57.87
71795;BME280;59641;45.188;5.712;2022-11-20T06:35:47;99196.78;;;10.64;57.71
71795;BME280;59641;45.188;5.712;2022-11-20T06:38:12;99197.81;;;10.63;57.98
71795;BME280;59641;45.188;5.712;2022-11-20T06:40:40;99203.44;;;10.61;57.96
71795;BME280;59641;45.188;5.712;2022-11-20T06:43:06;99199.94;;;10.61;57.50
71795;BME280;59641;45.188;5.712;2022-11-20T06:45:31;99195.84;;;10.58;57.80
71795;BME280;59641;45.188;5.712;2022-11-20T06:47:57;99189.88;;;10.56;57.86
71795;BME280;59641;45.188;5.712;2022-11-20T06:50:23;99195.44;;;10.55;57.74
71795;BME280;59641;45.188;5.712;2022-11-20T06:52:48;99200.00;;;10.54;57.94
71795;BME280;59641;45.188;5.712;2022-11-20T06:55:14;99202.88;;;10.53;58.13
71795;BME280;59641;45.188;5.712;2022-11-20T06:57:39;99207.44;;;10.52;58.04
71795;BME280;59641;45.188;5.712;2022-11-20T07:00:05;99213.63;;;10.53;57.93
71795;BME280;59641;45.188;5.712;2022-11-20T07:02:31;99207.66;;;10.51;57.85
71795;BME280;59641;45.188;5.712;2022-11-20T07:04:56;99213.03;;;10.51;57.74
71795;BME280;59641;45.188;5.712;2022-11-20T07:07:22;99211.41;;;10.50;58.16
71795;BME280;59641;45.188;5.712;2022-11-20T07:09:47;99214.88;;;10.50;57.96
71795;BME280;59641;45.188;5.712;2022-11-20T07:12:13;99220.50;;;10.49;58.27
71795;BME280;59641;45.188;5.712;2022-11-20T07:14:38;99216.16;;;10.48;58.13
71795;BME280;59641;45.188;5.712;2022-11-20T07:17:03;99218.25;;;10.45;58.26
71795;BME280;59641;45.188;5.712;2022-11-20T07:19:29;99224.88;;;10.43;58.05
71795;BME280;59641;45.188;5.712;2022-11-20T07:21:54;99227.56;;;10.43;57.99
71795;BME280;59641;45.188;5.712;2022-11-20T07:24:20;99223.25;;;10.42;58.34
71795;BME280;59641;45.188;5.712;2022-11-20T07:26:48;99238.06;;;10.44;58.41
71795;BME280;59641;45.188;5.712;2022-11-20T07:29:16;99237.00;;;10.45;58.32
71795;BME280;59641;45.188;5.712;2022-11-20T07:31:42;99233.53;;;10.45;58.43
71795;BME280;59641;45.188;5.712;2022-11-20T07:34:08;99236.81;;;10.47;58.73
71795;BME280;59641;45.188;5.712;2022-11-20T07:36:34;99240.09;;;10.49;58.49
71795;BME280;59641;45.188;5.712;2022-11-20T07:39:00;99246.28;;;10.50;58.38
71795;BME280;59641;45.188;5.712;2022-11-20T07:41:25;99248.94;;;10.50;58.32
71795;BME280;59641;45.188;5.712;2022-11-20T07:43:52;99255.94;;;10.51;58.84
71795;BME280;59641;45.188;5.712;2022-11-20T07:46:18;99248.28;;;10.54;58.45
71795;BME280;59641;45.188;5.712;2022-11-20T07:48:43;99251.78;;;10.55;58.44
71795;BME280;59641;45.188;5.712;2022-11-20T07:51:08;99246.63;;;10.53;58.39
71795;BME280;59641;45.188;5.712;2022-11-20T07:53:34;99255.53;;;10.54;58.70
71795;BME280;59641;45.188;5.712;2022-11-20T07:56:02;99253.41;;;10.56;58.59
71795;BME280;59641;45.188;5.712;2022-11-20T07:58:29;99247.03;;;10.57;58.40
71795;BME280;59641;45.188;5.712;2022-11-20T08:00:55;99245.75;;;10.59;58.71
71795;BME280;59641;45.188;5.712;2022-11-20T08:03:20;99246.34;;;10.61;58.73
71795;BME280;59641;45.188;5.712;2022-11-20T08:05:46;99246.97;;;10.63;58.65
71795;BME280;59641;45.188;5.712;2022-11-20T08:08:11;99248.59;;;10.64;58.57
71795;BME280;59641;45.188;5.712;2022-11-20T08:10:37;99248.59;;;10.64;58.63
71795;BME280;59641;45.188;5.712;2022-11-20T08:13:03;99247.09;;;10.69;58.62
71795;BME280;59641;45.188;5.712;2022-11-20T08:15:57;99242.34;;;10.71;58.60
71795;BME280;59641;45.188;5.712;2022-11-20T08:18:23;99253.44;;;10.74;58.66
71795;BME280;59641;45.188;5.712;2022-11-20T08:20:48;99253.44;;;10.74;58.33
71795;BME280;59641;45.188;5.712;2022-11-20T08:23:14;99256.50;;;10.78;58.40
71795;BME280;59641;45.188;5.712;2022-11-20T08:25:39;99261.03;;;10.77;57.99
71795;BME280;59641;45.188;5.712;2022-11-20T08:28:07;99257.31;;;10.78;58.53
71795;BME280;59641;45.188;5.712;2022-11-20T08:30:34;99256.25;;;10.79;58.21
71795;BME280;59641;45.188;5.712;2022-11-20T08:33:05;99259.53;;;10.81;58.41
71795;BME280;59641;45.188;5.712;2022-11-20T08:35:38;99266.13;;;10.85;58.54
71795;BME280;59641;45.188;5.712;2022-11-20T08:38:04;99257.81;;;10.87;58.52
71795;BME280;59641;45.188;5.712;2022-11-20T08:40:30;99261.72;;;10.91;58.30
71795;BME280;59641;45.188;5.712;2022-11-20T08:42:56;99254.25;;;10.93;58.17
71795;BME280;59641;45.188;5.712;2022-11-20T08:45:21;99244.56;;;10.92;57.56
71795;BME280;59641;45.188;5.712;2022-11-20T08:47:47;99252.16;;;10.95;58.04
71795;BME280;59641;45.188;5.712;2022-11-20T08:50:14;99258.13;;;10.97;57.78
71795;BME280;59641;45.188;5.712;2022-11-20T08:52:40;99250.50;;;10.94;57.37
71795;BME280;59641;45.188;5.712;2022-11-20T08:55:07;99256.13;;;10.93;57.24
71795;BME280;59641;45.188;5.712;2022-11-20T08:57:36;99249.69;;;10.94;57.77
71795;BME280;59641;45.188;5.712;2022-11-20T09:00:03;99254.63;;;10.97;57.56
71795;BME280;59641;45.188;5.712;2022-11-20T09:02:29;99244.47;;;10.99;57.79
71795;BME280;59641;45.188;5.712;2022-11-20T09:04:55;99241.09;;;11.03;57.81
71795;BME280;59641;45.188;5.712;2022-11-20T09:07:20;99249.53;;;11.07;58.09
71795;BME280;59641;45.188;5.712;2022-11-20T09:09:46;99246.19;;;11.12;58.21
71795;BME280;59641;45.188;5.712;2022-11-20T09:12:12;99259.75;;;11.17;57.02
71795;BME280;59641;45.188;5.712;2022-11-20T09:14:37;99252.03;;;11.20;57.59
71795;BME280;59641;45.188;5.712;2022-11-20T09:17:03;99257.81;;;11.24;56.74
71795;BME280;59641;45.188;5.712;2022-11-20T09:19:28;99257.34;;;11.27;57.16
71795;BME280;59641;45.188;5.712;2022-11-20T09:21:53;99253.38;;;11.29;57.14
71795;BME280;59641;45.188;5.712;2022-11-20T09:24:19;99257.72;;;11.30;56.84
71795;BME280;59641;45.188;5.712;2022-11-20T09:26:46;99266.34;;;11.33;57.04
71795;BME280;59641;45.188;5.712;2022-11-20T09:29:11;99258.44;;;11.38;57.32
71795;BME280;59641;45.188;5.712;2022-11-20T09:31:37;99267.06;;;11.40;56.40
71795;BME280;59641;45.188;5.712;2022-11-20T09:34:02;99266.25;;;11.39;56.35
71795;BME280;59641;45.188;5.712;2022-11-20T09:36:28;99269.53;;;11.41;56.51
71795;BME280;59641;45.188;5.712;2022-11-20T09:38:53;99271.19;;;11.42;56.04
71795;BME280;59641;45.188;5.712;2022-11-20T09:44:05;99283.50;;;11.50;55.96
71795;BME280;59641;45.188;5.712;2022-11-20T09:49:56;99279.41;;;11.59;56.28
71795;BME280;59641;45.188;5.712;2022-11-20T09:55:14;99287.84;;;11.63;55.75
71795;BME280;59641;45.188;5.712;2022-11-20T09:57:43;99291.59;;;11.62;55.80
71795;BME280;59641;45.188;5.712;2022-11-20T10:00:12;99293.44;;;11.61;55.43
71795;BME280;59641;45.188;5.712;2022-11-20T10:02:48;99287.25;;;11.61;55.22
71795;BME280;59641;45.188;5.712;2022-11-20T10:05:27;99289.72;;;11.62;55.63
71795;BME280;59641;45.188;5.712;2022-11-20T10:26:44;99294.81;;;12.24;54.28
71795;BME280;59641;45.188;5.712;2022-11-20T10:29:19;99303.16;;;12.46;53.95
71795;BME280;59641;45.188;5.712;2022-11-20T10:32:00;99295.06;;;12.58;53.27
71795;BME280;59641;45.188;5.712;2022-11-20T10:37:14;99289.91;;;12.56;52.96
71795;BME280;59641;45.188;5.712;2022-11-20T10:42:29;99302.44;;;12.51;53.08
71795;BME280;59641;45.188;5.712;2022-11-20T10:47:36;99300.44;;;12.46;53.43
71795;BME280;59641;45.188;5.712;2022-11-20T10:50:04;99289.69;;;12.46;53.18
71795;BME280;59641;45.188;5.712;2022-11-20T10:55:40;99299.03;;;12.44;53.30
71795;BME280;59641;45.188;5.712;2022-11-20T10:58:13;99300.34;;;12.41;52.63
71795;BME280;59641;45.188;5.712;2022-11-20T11:00:42;99287.44;;;12.43;53.28
71795;BME280;59641;45.188;5.712;2022-11-20T11:03:26;99292.72;;;12.50;53.56
71795;BME280;59641;45.188;5.712;2022-11-20T11:08:56;99286.16;;;12.57;52.96
71795;BME280;59641;45.188;5.712;2022-11-20T11:11:30;99281.13;;;12.61;53.06
71795;BME280;59641;45.188;5.712;2022-11-20T11:14:10;99291.66;;;12.63;51.13
71795;BME280;59641;45.188;5.712;2022-11-20T11:16:49;99296.81;;;12.64;52.05
71795;BME280;59641;45.188;5.712;2022-11-20T11:19:16;99296.59;;;12.66;51.88
71795;BME280;59641;45.188;5.712;2022-11-20T11:21:56;99277.63;;;12.61;51.12
71795;BME280;59641;45.188;5.712;2022-11-20T11:24:27;99274.25;;;12.65;51.21
71795;BME280;59641;45.188;5.712;2022-11-20T11:26:59;99277.25;;;12.69;51.56
71795;BME280;59641;45.188;5.712;2022-11-20T11:29:25;99261.91;;;12.69;51.42
71795;BME280;59641;45.188;5.712;2022-11-20T11:32:11;99252.91;;;12.75;51.25
71795;BME280;59641;45.188;5.712;2022-11-20T11:34:37;99236.63;;;12.82;51.18
71795;BME280;59641;45.188;5.712;2022-11-20T11:37:03;99245.63;;;12.88;50.82
71795;BME280;59641;45.188;5.712;2022-11-20T11:39:31;99230.28;;;12.88;50.02
71795;BME280;59641;45.188;5.712;2022-11-20T11:41:59;99229.69;;;12.86;49.14
71795;BME280;59641;45.188;5.712;2022-11-20T11:44:32;99225.38;;;12.85;50.25
71795;BME280;59641;45.188;5.712;2022-11-20T11:47:30;99224.66;;;12.90;50.16
71795;BME280;59641;45.188;5.712;2022-11-20T12:00:29;99188.22;;;12.99;49.37
71795;BME280;59641;45.188;5.712;2022-11-20T12:03:16;99186.94;;;13.02;50.10
71795;BME280;59641;45.188;5.712;2022-11-20T12:05:51;99177.28;;;13.06;49.90
71795;BME280;59641;45.188;5.712;2022-11-20T12:11:58;99187.94;;;13.12;49.35
71795;BME280;59641;45.188;5.712;2022-11-20T12:14:40;99179.34;;;13.15;49.16
71795;BME280;59641;45.188;5.712;2022-11-20T12:17:10;99168.94;;;13.19;48.64
71795;BME280;59641;45.188;5.712;2022-11-20T12:19:37;99160.84;;;13.19;48.26
71795;BME280;59641;45.188;5.712;2022-11-20T12:25:03;99158.63;;;13.28;48.86
71795;BME280;59641;45.188;5.712;2022-11-20T12:30:12;99136.16;;;13.39;49.28
71795;BME280;59641;45.188;5.712;2022-11-20T12:35:32;99135.78;;;13.47;48.21
71795;BME280;59641;45.188;5.712;2022-11-20T12:43:23;99114.53;;;13.51;48.05
71795;BME280;59641;45.188;5.712;2022-11-20T12:49:28;99093.78;;;13.51;47.36
71795;BME280;59641;45.188;5.712;2022-11-20T12:55:13;99093.03;;;13.56;48.02
71795;BME280;59641;45.188;5.712;2022-11-20T12:57:52;99076.63;;;13.57;48.13
71795;BME280;59641;45.188;5.712;2022-11-20T13:00:23;99081.78;;;13.59;48.32
71795;BME280;59641;45.188;5.712;2022-11-20T13:08:34;99072.44;;;13.67;48.60
71795;BME280;59641;45.188;5.712;2022-11-20T13:11:16;99077.56;;;13.68;48.29
71795;BME280;59641;45.188;5.712;2022-11-20T13:16:48;99083.81;;;13.69;45.18
71795;BME280;59641;45.188;5.712;2022-11-20T13:19:17;99085.66;;;13.68;46.94
71795;BME280;59641;45.188;5.712;2022-11-20T13:21:47;99079.81;;;13.71;47.59
71795;BME280;59641;45.188;5.712;2022-11-20T13:26:46;99076.91;;;13.78;46.79
71795;BME280;59641;45.188;5.712;2022-11-20T13:29:18;99068.28;;;13.76;47.11
71795;BME280;59641;45.188;5.712;2022-11-20T13:31:46;99076.38;;;13.76;45.87
71795;BME280;59641;45.188;5.712;2022-11-20T13:34:22;99085.34;;;13.81;47.28
71795;BME280;59641;45.188;5.712;2022-11-20T13:36:51;99082.94;;;13.85;48.42
71795;BME280;59641;45.188;5.712;2022-11-20T13:39:31;99092.34;;;13.82;47.30
71795;BME280;59641;45.188;5.712;2022-11-20T13:42:18;99105.59;;;13.84;46.07
71795;BME280;59641;45.188;5.712;2022-11-20T13:44:54;99093.19;;;13.83;46.26
71795;BME280;59641;45.188;5.712;2022-11-20T13:47:23;99085.09;;;13.83;46.05
71795;BME280;59641;45.188;5.712;2022-11-20T13:49:51;99085.09;;;13.83;46.70
71795;BME280;59641;45.188;5.712;2022-11-20T14:00:29;99075.94;;;13.84;45.89
71795;BME280;59641;45.188;5.712;2022-11-20T14:03:13;99080.19;;;13.80;44.98
71795;BME280;59641;45.188;5.712;2022-11-20T14:05:53;99082.06;;;13.79;46.88
71795;BME280;59641;45.188;5.712;2022-11-20T14:08:33;99077.75;;;13.78;46.30
71795;BME280;59641;45.188;5.712;2022-11-20T14:11:22;99074.94;;;13.73;46.34
71795;BME280;59641;45.188;5.712;2022-11-20T14:14:02;99079.69;;;13.66;46.26
71795;BME280;59641;45.188;5.712;2022-11-20T14:16:33;99075.06;;;13.61;46.11
71795;BME280;59641;45.188;5.712;2022-11-20T14:21:47;99064.53;;;13.60;47.03
71795;BME280;59641;45.188;5.712;2022-11-20T14:24:14;99062.06;;;13.58;46.83
71795;BME280;59641;45.188;5.712;2022-11-20T14:26:44;99070.66;;;13.55;45.73
71795;BME280;59641;45.188;5.712;2022-11-20T14:29:26;99067.66;;;13.52;46.52
71795;BME280;59641;45.188;5.712;2022-11-20T14:31:54;99063.53;;;13.49;46.52
71795;BME280;59641;45.188;5.712;2022-11-20T14:34:28;99063.31;;;13.51;46.62
71795;BME280;59641;45.188;5.712;2022-11-20T14:37:03;99073.03;;;13.52;46.91
71795;BME280;59641;45.188;5.712;2022-11-20T14:39:34;99078.44;;;13.52;46.64
71795;BME280;59641;45.188;5.712;2022-11-20T14:42:01;99083.81;;;13.52;46.54
71795;BME280;59641;45.188;5.712;2022-11-20T14:44:31;99088.63;;;13.50;46.15
71795;BME280;59641;45.188;5.712;2022-11-20T14:46:59;99086.19;;;13.48;45.60
71795;BME280;59641;45.188;5.712;2022-11-20T14:49:26;99071.31;;;13.46;46.29
71795;BME280;59641;45.188;5.712;2022-11-20T14:52:02;99064.78;;;13.41;47.25
71795;BME280;59641;45.188;5.712;2022-11-20T14:54:27;99061.19;;;13.36;46.46